createdAt,value
2022-08-29T00:01:33.367Z,97367.13
2022-08-29T00:04:01.356Z,97362.97
2022-08-29T00:06:29.419Z,97365.31
2022-08-29T00:08:57.740Z,97363.94
2022-08-29T00:11:25.556Z,97363.44
2022-08-29T00:13:53.492Z,97360.63
2022-08-29T00:16:22.632Z,97361.22
2022-08-29T00:18:50.553Z,97356.41
2022-08-29T00:21:18.356Z,97358.19
2022-08-29T00:23:46.406Z,97367.03
2022-08-29T00:26:14.447Z,97367.72
2022-08-29T00:28:42.336Z,97369.41
2022-08-29T00:31:10.097Z,97367.72
2022-08-29T00:33:39.549Z,97379.22
2022-08-29T00:36:07.875Z,97374.63
2022-08-29T00:38:35.929Z,97376.63
2022-08-29T00:41:04.863Z,97385.47
2022-08-29T00:43:36.153Z,97374.69
2022-08-29T00:46:13.049Z,97380.28
2022-08-29T00:48:43.211Z,97387.38
2022-08-29T00:51:18.540Z,97384.59
2022-08-29T00:53:49.293Z,97383.41
2022-08-29T00:56:18.690Z,97379.03
2022-08-29T00:58:51.738Z,97384.19
2022-08-29T01:01:20.077Z,97393.31
2022-08-29T01:03:51.092Z,97386.34
2022-08-29T01:06:19.662Z,97389.22
2022-08-29T01:08:47.745Z,97392.63
2022-08-29T01:11:35.639Z,97390.91
2022-08-29T01:14:04.788Z,97387.13
2022-08-29T01:16:33.338Z,97385.25
2022-08-29T01:19:08.365Z,97382.13
2022-08-29T01:21:42.559Z,97375.03
2022-08-29T01:24:21.340Z,97381.84
2022-08-29T01:26:49.118Z,97386.91
2022-08-29T01:29:17.418Z,97378.91
2022-08-29T01:31:57.783Z,97384.59
2022-08-29T01:34:28.842Z,97388.56
2022-08-29T01:36:59.019Z,97390.69
2022-08-29T01:39:30.980Z,97402.31
2022-08-29T01:42:01.397Z,97393.19
2022-08-29T01:44:29.183Z,97392.16
2022-08-29T01:47:02.657Z,97392.66
2022-08-29T01:49:32.229Z,97392.78
2022-08-29T01:52:00.164Z,97398.47
2022-08-29T01:54:31.557Z,97394.78
2022-08-29T01:56:59.433Z,97404.94
2022-08-29T01:59:29.393Z,97404.47
2022-08-29T02:02:01.454Z,97403.34
2022-08-29T02:04:29.579Z,97396.03
2022-08-29T02:06:58.760Z,97398.41
2022-08-29T02:09:27.696Z,97395.16
2022-08-29T02:11:58.179Z,97396.41
2022-08-29T02:14:26.464Z,97394.19
2022-08-29T02:16:54.259Z,97394.00
2022-08-29T02:19:22.051Z,97394.09
2022-08-29T02:21:51.539Z,97399.88
2022-08-29T02:24:25.921Z,97397.47
2022-08-29T02:26:57.780Z,97393.56
2022-08-29T02:29:34.249Z,97391.38
2022-08-29T02:32:07.969Z,97386.31
2022-08-29T02:34:36.360Z,97395.16
2022-08-29T02:37:05.171Z,97393.69
2022-08-29T02:39:34.265Z,97387.69
2022-08-29T02:42:03.416Z,97391.00
2022-08-29T02:44:31.681Z,97385.38
2022-08-29T02:46:59.473Z,97387.31
2022-08-29T02:49:27.381Z,97391.13
2022-08-29T02:51:55.193Z,97394.63
2022-08-29T02:54:23.626Z,97386.00
2022-08-29T02:56:51.571Z,97392.78
2022-08-29T02:59:20.677Z,97390.88
2022-08-29T03:01:48.532Z,97391.63
2022-08-29T03:04:16.377Z,97387.94
2022-08-29T03:06:44.196Z,97390.75
2022-08-29T03:09:11.992Z,97389.22
2022-08-29T03:11:39.955Z,97387.25
2022-08-29T03:14:07.787Z,97391.31
2022-08-29T03:16:37.073Z,97386.59
2022-08-29T03:19:04.863Z,97398.47
2022-08-29T03:21:33.411Z,97404.38
2022-08-29T03:24:01.175Z,97404.91
2022-08-29T03:26:28.985Z,97395.09
2022-08-29T03:28:56.727Z,97405.41
2022-08-29T03:31:24.663Z,97402.78
2022-08-29T03:33:54.036Z,97405.56
2022-08-29T03:36:21.889Z,97404.38
2022-08-29T03:38:49.650Z,97407.38
2022-08-29T03:41:22.166Z,97404.03
2022-08-29T03:43:49.957Z,97412.78
2022-08-29T03:46:17.837Z,97419.59
2022-08-29T03:48:45.816Z,97417.00
2022-08-29T03:51:15.111Z,97416.41
2022-08-29T03:53:43.424Z,97418.19
2022-08-29T03:56:18.560Z,97426.88
2022-08-29T03:58:52.610Z,97422.72
2022-08-29T04:01:22.486Z,97423.41
2022-08-29T04:03:51.040Z,97424.31
2022-08-29T04:06:20.262Z,97429.63
2022-08-29T04:08:48.625Z,97428.41
2022-08-29T04:11:17.959Z,97427.97
2022-08-29T04:13:46.369Z,97426.78
2022-08-29T04:16:16.450Z,97435.06
2022-08-29T04:18:44.774Z,97437.56
2022-08-29T04:21:13.478Z,97436.97
2022-08-29T04:23:42.718Z,97439.66
2022-08-29T04:26:35.160Z,97436.69
2022-08-29T04:29:03.163Z,97434.84
2022-08-29T04:31:30.939Z,97438.53
2022-08-29T04:33:58.902Z,97437.97
2022-08-29T04:36:28.111Z,97443.84
2022-08-29T04:38:57.907Z,97442.94
2022-08-29T04:41:25.721Z,97446.59
2022-08-29T04:43:53.521Z,97453.97
2022-08-29T04:46:24.467Z,97446.38
2022-08-29T04:48:53.382Z,97458.13
2022-08-29T04:51:22.501Z,97463.00
2022-08-29T04:53:51.704Z,97465.69
2022-08-29T04:56:22.371Z,97473.06
2022-08-29T04:58:52.022Z,97469.72
2022-08-29T05:01:22.626Z,97477.72
2022-08-29T05:03:52.116Z,97476.44
2022-08-29T05:06:22.528Z,97476.94
2022-08-29T05:08:59.323Z,97475.59
2022-08-29T05:11:30.752Z,97475.69
2022-08-29T05:13:59.126Z,97483.03
2022-08-29T05:16:27.400Z,97479.50
2022-08-29T05:18:55.222Z,97477.03
2022-08-29T05:21:28.356Z,97480.41
2022-08-29T05:23:57.157Z,97485.69
2022-08-29T05:26:26.265Z,97481.38
2022-08-29T05:28:55.333Z,97482.84
2022-08-29T05:31:23.584Z,97488.84
2022-08-29T05:33:51.919Z,97486.00
2022-08-29T05:36:20.196Z,97472.78
2022-08-29T05:38:48.208Z,97478.22
2022-08-29T05:41:16.095Z,97476.22
2022-08-29T05:43:43.929Z,97477.72
2022-08-29T05:46:13.173Z,97489.28
2022-08-29T05:48:43.036Z,97483.78
2022-08-29T05:51:16.461Z,97491.91
2022-08-29T05:53:44.461Z,97483.72
2022-08-29T05:56:12.869Z,97487.50
2022-08-29T05:58:40.633Z,97494.84
2022-08-29T06:01:08.386Z,97486.41
2022-08-29T06:03:39.046Z,97492.47
2022-08-29T06:06:08.656Z,97499.97
2022-08-29T06:08:36.362Z,97499.50
2022-08-29T06:11:04.294Z,97496.31
2022-08-29T06:13:32.021Z,97499.22
2022-08-29T06:15:59.919Z,97502.41
2022-08-29T06:18:35.852Z,97502.28
2022-08-29T06:21:06.751Z,97502.66
2022-08-29T06:23:34.706Z,97511.41
2022-08-29T06:26:02.629Z,97521.75
2022-08-29T06:28:32.121Z,97515.28
2022-08-29T06:31:06.692Z,97521.91
2022-08-29T06:33:34.862Z,97520.91
2022-08-29T06:36:04.585Z,97518.72
2022-08-29T06:38:34.181Z,97527.34
2022-08-29T06:41:03.588Z,97515.69
2022-08-29T06:43:31.349Z,97517.91
2022-08-29T06:45:59.467Z,97516.88
2022-08-29T06:48:29.575Z,97520.78
2022-08-29T06:50:58.316Z,97517.91
2022-08-29T06:53:32.104Z,97516.19
2022-08-29T06:56:06.769Z,97526.50
2022-08-29T06:58:39.390Z,97531.31
2022-08-29T07:01:08.507Z,97528.34
2022-08-29T07:03:36.463Z,97515.31
2022-08-29T07:06:04.645Z,97505.84
2022-08-29T07:08:33.709Z,97504.63
2022-08-29T07:11:01.514Z,97508.63
2022-08-29T07:13:31.250Z,97499.59
2022-08-29T07:15:59.153Z,97500.09
2022-08-29T07:18:27.045Z,97510.31
2022-08-29T07:20:54.980Z,97507.91
2022-08-29T07:23:23.230Z,97512.91
2022-08-29T07:25:54.443Z,97504.28
2022-08-29T07:28:22.235Z,97501.06
2022-08-29T07:30:52.141Z,97509.28
2022-08-29T07:33:20.081Z,97505.66
2022-08-29T07:35:48.266Z,97505.06
2022-08-29T07:38:16.151Z,97492.69
2022-08-29T07:40:44.154Z,97487.53
2022-08-29T07:43:15.428Z,97487.72
2022-08-29T07:45:45.756Z,97495.72
2022-08-29T07:48:15.121Z,97490.78
2022-08-29T07:50:43.900Z,97495.25
2022-08-29T07:53:11.710Z,97503.88
2022-08-29T07:55:39.550Z,97505.09
2022-08-29T07:58:07.547Z,97513.03
2022-08-29T08:00:35.374Z,97510.38
2022-08-29T08:03:03.222Z,97510.09
2022-08-29T08:05:32.419Z,97510.94
2022-08-29T08:08:05.314Z,97509.41
2022-08-29T08:10:39.444Z,97507.16
2022-08-29T08:13:07.832Z,97512.31
2022-08-29T08:15:35.699Z,97511.09
2022-08-29T08:18:03.453Z,97514.97
2022-08-29T08:20:32.557Z,97512.81
2022-08-29T08:23:00.360Z,97512.66
2022-08-29T08:25:28.398Z,97515.13
2022-08-29T08:27:57.037Z,97518.75
2022-08-29T08:30:25.529Z,97513.97
2022-08-29T08:32:55.131Z,97514.31
2022-08-29T08:35:23.180Z,97528.97
2022-08-29T08:37:53.329Z,97521.78
2022-08-29T08:40:23.788Z,97525.75
2022-08-29T08:42:51.970Z,97527.50
2022-08-29T08:45:23.131Z,97534.00
2022-08-29T08:47:54.327Z,97524.38
2022-08-29T08:50:27.762Z,97527.56
2022-08-29T08:53:00.760Z,97535.63
2022-08-29T08:55:39.868Z,97517.25
2022-08-29T08:58:16.618Z,97535.69
2022-08-29T09:00:47.582Z,97523.81
2022-08-29T09:03:46.761Z,97534.56
2022-08-29T09:06:26.995Z,97526.97
2022-08-29T09:09:06.101Z,97529.50
2022-08-29T09:11:49.955Z,97527.88
2022-08-29T09:14:33.694Z,97519.09
2022-08-29T09:17:03.297Z,97520.41
2022-08-29T09:19:32.252Z,97521.72
2022-08-29T09:22:07.616Z,97520.28
2022-08-29T09:24:41.728Z,97523.22
2022-08-29T09:27:18.707Z,97519.78
2022-08-29T09:29:48.797Z,97522.75
2022-08-29T09:32:22.174Z,97524.75
2022-08-29T09:35:08.434Z,97528.97
2022-08-29T09:37:37.434Z,97529.88
2022-08-29T09:40:11.052Z,97529.75
2022-08-29T09:42:42.453Z,97530.28
2022-08-29T09:45:20.359Z,97532.13
2022-08-29T09:47:48.292Z,97539.91
2022-08-29T09:50:24.540Z,97544.56
2022-08-29T09:52:54.346Z,97528.25
2022-08-29T09:55:30.402Z,97533.19
2022-08-29T09:58:02.331Z,97535.56
2022-08-29T10:00:34.023Z,97538.09
2022-08-29T10:03:04.300Z,97542.84
2022-08-29T10:05:42.476Z,97541.72
2022-08-29T10:08:30.467Z,97531.50
2022-08-29T10:11:02.881Z,97532.06
2022-08-29T10:13:48.319Z,97536.47
2022-08-29T10:16:24.689Z,97538.31
2022-08-29T10:18:57.910Z,97527.00
2022-08-29T10:21:33.614Z,97531.81
2022-08-29T10:24:24.173Z,97536.13
2022-08-29T10:27:00.986Z,97535.50
2022-08-29T10:29:52.149Z,97536.03
2022-08-29T10:32:34.056Z,97528.47
2022-08-29T10:35:09.622Z,97537.03
2022-08-29T10:37:48.626Z,97535.53
2022-08-29T10:40:23.953Z,97531.47
2022-08-29T10:43:12.490Z,97529.38
2022-08-29T10:45:57.592Z,97538.53
2022-08-29T10:48:31.449Z,97538.81
2022-08-29T10:51:17.278Z,97530.28
2022-08-29T10:53:49.692Z,97534.03
2022-08-29T10:56:22.786Z,97533.91
2022-08-29T10:59:04.013Z,97534.34
2022-08-29T11:01:35.896Z,97528.16
2022-08-29T11:04:17.566Z,97529.91
2022-08-29T11:06:53.744Z,97535.69
2022-08-29T11:09:25.313Z,97536.94
2022-08-29T11:12:05.568Z,97538.13
2022-08-29T11:14:39.101Z,97531.50
2022-08-29T11:17:10.210Z,97520.44
2022-08-29T11:19:49.345Z,97524.19
2022-08-29T11:22:21.202Z,97521.97
2022-08-29T11:24:58.444Z,97515.19
2022-08-29T11:27:37.787Z,97510.41
2022-08-29T11:30:11.102Z,97523.63
2022-08-29T11:32:48.616Z,97516.38
2022-08-29T11:35:22.682Z,97526.84
2022-08-29T11:38:26.797Z,97521.72
2022-08-29T11:44:14.182Z,97525.56
2022-08-29T11:46:52.894Z,97522.34
2022-08-29T11:49:37.097Z,97522.72
2022-08-29T11:52:25.406Z,97516.97
2022-08-29T11:55:15.819Z,97524.47
2022-08-29T11:58:04.190Z,97524.78
2022-08-29T12:00:51.146Z,97522.75
2022-08-29T12:03:57.186Z,97522.72
2022-08-29T12:06:37.112Z,97522.16
2022-08-29T12:09:18.431Z,97524.50
2022-08-29T12:12:20.715Z,97520.59
2022-08-29T12:14:50.122Z,97527.78
2022-08-29T12:18:00.818Z,97527.78
2022-08-29T12:20:52.563Z,97519.44
2022-08-29T12:23:26.901Z,97514.31
2022-08-29T12:26:15.774Z,97515.72
2022-08-29T12:28:47.774Z,97517.25
2022-08-29T12:32:18.219Z,97517.38
2022-08-29T12:34:55.724Z,97515.28
2022-08-29T12:37:52.453Z,97520.75
2022-08-29T12:40:39.643Z,97508.88
2022-08-29T12:43:29.752Z,97510.78
2022-08-29T12:45:58.554Z,97515.34
2022-08-29T12:48:29.632Z,97507.28
2022-08-29T12:50:57.769Z,97505.91
2022-08-29T12:53:30.224Z,97503.94
2022-08-29T12:56:00.163Z,97499.75
2022-08-29T12:58:36.752Z,97505.59
2022-08-29T13:01:07.846Z,97502.13
2022-08-29T13:03:36.445Z,97496.53
2022-08-29T13:06:08.422Z,97489.66
2022-08-29T13:08:38.162Z,97488.28
2022-08-29T13:11:08.118Z,97487.84
2022-08-29T13:13:36.772Z,97482.94
2022-08-29T13:16:07.916Z,97473.88
2022-08-29T13:18:49.102Z,97477.09
2022-08-29T13:21:25.986Z,97475.38
2022-08-29T13:24:05.356Z,97473.06
2022-08-29T13:26:34.188Z,97469.44
2022-08-29T13:29:22.076Z,97473.69
2022-08-29T13:32:23.806Z,97473.25
2022-08-29T13:35:05.224Z,97471.66
2022-08-29T13:37:36.150Z,97460.25
2022-08-29T13:40:30.647Z,97466.94
2022-08-29T13:43:00.319Z,97459.38
2022-08-29T13:45:28.361Z,97464.06
2022-08-29T13:47:59.611Z,97460.47
2022-08-29T13:50:28.046Z,97457.75
2022-08-29T13:52:57.671Z,97450.94
2022-08-29T13:55:25.811Z,97457.00
2022-08-29T13:57:56.352Z,97456.81
2022-08-29T14:00:35.026Z,97452.22
2022-08-29T14:03:06.989Z,97454.94
2022-08-29T14:05:36.143Z,97464.72
2022-08-29T14:08:05.359Z,97462.75
2022-08-29T14:10:33.272Z,97458.41
2022-08-29T14:13:02.917Z,97461.63
2022-08-29T14:15:30.892Z,97463.25
2022-08-29T14:17:59.372Z,97458.50
2022-08-29T14:20:27.478Z,97471.91
2022-08-29T14:22:55.412Z,97472.13
2022-08-29T14:25:23.333Z,97467.22
2022-08-29T14:27:51.697Z,97469.97
2022-08-29T14:30:22.909Z,97471.69
2022-08-29T14:32:50.962Z,97468.22
2022-08-29T14:35:26.485Z,97465.72
2022-08-29T14:37:59.390Z,97471.81
2022-08-29T14:40:29.087Z,97460.38
2022-08-29T14:42:57.555Z,97462.31
2022-08-29T14:45:27.513Z,97457.16
2022-08-29T14:47:55.700Z,97462.44
2022-08-29T14:50:24.275Z,97457.44
2022-08-29T14:52:52.359Z,97455.47
2022-08-29T14:55:21.266Z,97450.34
2022-08-29T14:57:49.239Z,97449.84
2022-08-29T15:00:19.931Z,97453.00
2022-08-29T15:02:49.545Z,97453.72
2022-08-29T15:05:17.429Z,97445.09
2022-08-29T15:07:45.843Z,97449.16
2022-08-29T15:10:15.610Z,97443.88
2022-08-29T15:12:43.519Z,97449.44
2022-08-29T15:15:12.528Z,97443.91
2022-08-29T15:17:43.585Z,97445.34
2022-08-29T15:20:35.359Z,97439.28
2022-08-29T15:23:03.453Z,97441.88
2022-08-29T15:25:31.378Z,97447.63
2022-08-29T15:27:59.437Z,97442.81
2022-08-29T15:30:27.516Z,97450.94
2022-08-29T15:32:55.815Z,97443.88
2022-08-29T15:35:25.590Z,97450.19
2022-08-29T15:37:54.401Z,97443.53
2022-08-29T15:40:23.069Z,97447.06
2022-08-29T15:42:51.097Z,97445.59
2022-08-29T15:45:19.166Z,97447.59
2022-08-29T15:47:54.115Z,97441.66
2022-08-29T15:50:23.711Z,97434.53
2022-08-29T15:52:53.586Z,97437.41
2022-08-29T15:55:22.389Z,97445.88
2022-08-29T15:57:52.424Z,97448.28
2022-08-29T16:00:30.454Z,97443.44
2022-08-29T16:03:03.560Z,97446.44
2022-08-29T16:05:32.585Z,97440.16
2022-08-29T16:08:02.071Z,97439.50
2022-08-29T16:10:30.014Z,97443.09
2022-08-29T16:12:58.377Z,97444.22
2022-08-29T16:15:27.782Z,97442.25
2022-08-29T16:17:55.794Z,97440.16
2022-08-29T16:20:23.814Z,97438.91
2022-08-29T16:22:51.854Z,97435.91
2022-08-29T16:25:22.510Z,97437.59
2022-08-29T16:27:50.847Z,97439.91
2022-08-29T16:30:19.185Z,97433.19
2022-08-29T16:32:48.408Z,97437.38
2022-08-29T16:35:16.845Z,97434.56
2022-08-29T16:37:44.885Z,97438.84
2022-08-29T16:40:15.890Z,97428.47
2022-08-29T16:42:55.648Z,97431.81
2022-08-29T16:45:23.871Z,97427.41
2022-08-29T16:47:56.732Z,97428.75
2022-08-29T16:50:26.710Z,97428.81
2022-08-29T16:52:54.822Z,97428.50
2022-08-29T16:55:24.815Z,97427.47
2022-08-29T16:58:11.676Z,97428.91
2022-08-29T17:00:40.278Z,97431.34
2022-08-29T17:03:08.146Z,97430.03
2022-08-29T17:05:36.018Z,97425.16
2022-08-29T17:08:03.251Z,97430.16
2022-08-29T17:10:29.998Z,97429.72
2022-08-29T17:12:58.075Z,97436.63
2022-08-29T17:15:24.926Z,97438.34
2022-08-29T17:17:52.747Z,97438.78
2022-08-29T17:20:20.773Z,97435.22
2022-08-29T17:22:48.581Z,97449.88
2022-08-29T17:25:16.486Z,97453.91
2022-08-29T17:27:55.605Z,97451.53
2022-08-29T17:30:33.587Z,97452.91
2022-08-29T17:33:02.725Z,97465.72
2022-08-29T17:35:31.283Z,97452.44
2022-08-29T17:37:59.625Z,97457.31
2022-08-29T17:40:27.563Z,97456.69
2022-08-29T17:42:55.449Z,97459.53
2022-08-29T17:45:23.325Z,97455.78
2022-08-29T17:47:52.477Z,97456.38
2022-08-29T17:50:20.420Z,97456.66
2022-08-29T17:52:48.225Z,97461.06
2022-08-29T17:55:16.300Z,97464.66
2022-08-29T17:57:44.177Z,97469.38
2022-08-29T18:00:13.152Z,97465.28
2022-08-29T18:02:41.754Z,97468.34
2022-08-29T18:05:12.674Z,97466.88
2022-08-29T18:07:41.406Z,97470.94
2022-08-29T18:10:11.424Z,97468.28
2022-08-29T18:12:39.611Z,97472.00
2022-08-29T18:15:09.271Z,97467.97
2022-08-29T18:17:37.686Z,97476.69
2022-08-29T18:20:07.585Z,97485.41
2022-08-29T18:22:37.154Z,97489.31
2022-08-29T18:25:06.311Z,97494.88
2022-08-29T18:27:34.446Z,97494.25
2022-08-29T18:30:02.952Z,97502.34
2022-08-29T18:32:34.759Z,97502.59
2022-08-29T18:35:05.985Z,97505.22
2022-08-29T18:37:33.787Z,97504.38
2022-08-29T18:40:03.642Z,97514.38
2022-08-29T18:42:40.523Z,97515.97
2022-08-29T18:45:10.313Z,97514.03
2022-08-29T18:47:38.516Z,97518.03
2022-08-29T18:50:25.458Z,97515.81
2022-08-29T18:52:55.283Z,97509.59
2022-08-29T18:55:25.078Z,97516.72
2022-08-29T18:57:53.189Z,97522.28
2022-08-29T19:00:21.710Z,97519.81
2022-08-29T19:02:49.508Z,97514.09
2022-08-29T19:05:18.444Z,97519.72
2022-08-29T19:07:46.261Z,97520.09
2022-08-29T19:10:14.731Z,97521.78
2022-08-29T19:12:44.261Z,97522.75
2022-08-29T19:15:15.748Z,97528.69
2022-08-29T19:17:43.945Z,97532.63
2022-08-29T19:20:28.568Z,97541.50
2022-08-29T19:22:56.470Z,97529.16
2022-08-29T19:25:24.350Z,97537.31
2022-08-29T19:27:53.544Z,97532.88
2022-08-29T19:30:21.554Z,97534.50
2022-08-29T19:32:49.952Z,97540.19
2022-08-29T19:35:18.315Z,97541.28
2022-08-29T19:37:46.140Z,97541.88
2022-08-29T19:40:17.520Z,97533.16
2022-08-29T19:42:47.992Z,97533.16
2022-08-29T19:45:20.212Z,97534.28
2022-08-29T19:47:49.444Z,97528.84
2022-08-29T19:50:18.727Z,97531.47
2022-08-29T19:52:46.634Z,97528.84
2022-08-29T19:55:17.776Z,97533.94
2022-08-29T19:57:47.402Z,97532.84
2022-08-29T20:00:19.860Z,97538.97
2022-08-29T20:02:47.695Z,97535.03
2022-08-29T20:05:18.164Z,97534.97
2022-08-29T20:07:49.607Z,97525.81
2022-08-29T20:10:21.474Z,97543.25
2022-08-29T20:12:51.716Z,97547.47
2022-08-29T20:15:26.768Z,97543.41
2022-08-29T20:17:59.382Z,97539.94
2022-08-29T20:20:30.449Z,97541.56
2022-08-29T20:22:58.466Z,97546.13
2022-08-29T20:25:26.660Z,97549.81
2022-08-29T20:27:54.427Z,97543.81
2022-08-29T20:30:27.128Z,97553.34
2022-08-29T20:32:55.716Z,97549.84
2022-08-29T20:35:38.208Z,97550.63
2022-08-29T20:38:06.156Z,97555.06
2022-08-29T20:40:37.132Z,97559.94
2022-08-29T20:43:06.186Z,97560.84
2022-08-29T20:45:35.548Z,97565.47
2022-08-29T20:48:03.656Z,97570.41
2022-08-29T20:50:31.667Z,97570.41
2022-08-29T20:52:59.505Z,97563.22
2022-08-29T20:55:27.428Z,97572.41
2022-08-29T20:57:55.251Z,97578.56
2022-08-29T21:00:23.649Z,97571.88
2022-08-29T21:03:10.326Z,97574.22
2022-08-29T21:05:42.598Z,97571.34
2022-08-29T21:08:12.424Z,97565.69
2022-08-29T21:10:40.607Z,97559.47
2022-08-29T21:13:09.354Z,97569.97
2022-08-29T21:15:38.055Z,97573.88
2022-08-29T21:18:08.310Z,97581.50
2022-08-29T21:20:37.870Z,97583.84
2022-08-29T21:23:13.220Z,97583.06
2022-08-29T21:25:41.263Z,97592.00
2022-08-29T21:28:09.539Z,97597.44
2022-08-29T21:30:41.372Z,97592.69
2022-08-29T21:33:14.336Z,97586.81
2022-08-29T21:35:42.296Z,97587.38
2022-08-29T21:38:11.334Z,97595.63
2022-08-29T21:40:46.745Z,97591.03
2022-08-29T21:43:19.793Z,97597.66
2022-08-29T21:45:47.940Z,97598.84
2022-08-29T21:48:17.345Z,97597.47
2022-08-29T21:50:45.539Z,97592.22
2022-08-29T21:53:14.385Z,97597.47
2022-08-29T21:55:42.391Z,97601.19
2022-08-29T21:58:10.295Z,97597.94
2022-08-29T22:00:42.055Z,97595.72
2022-08-29T22:03:12.373Z,97595.00
2022-08-29T22:05:43.948Z,97593.09
2022-08-29T22:08:13.813Z,97589.56
2022-08-29T22:10:43.170Z,97582.84
2022-08-29T22:13:11.111Z,97580.22
2022-08-29T22:15:56.781Z,97575.34
2022-08-29T22:18:24.608Z,97571.13
2022-08-29T22:20:55.578Z,97579.34
2022-08-29T22:23:25.376Z,97577.13
2022-08-29T22:25:53.981Z,97571.91
2022-08-29T22:28:21.815Z,97575.50
2022-08-29T22:30:49.787Z,97578.75
2022-08-29T22:33:18.060Z,97568.56
2022-08-29T22:35:46.506Z,97579.47
2022-08-29T22:38:15.598Z,97569.84
2022-08-29T22:40:44.566Z,97569.28
2022-08-29T22:43:12.504Z,97576.06
2022-08-29T22:45:41.614Z,97575.34
2022-08-29T22:48:09.489Z,97576.25
2022-08-29T22:50:37.638Z,97571.31
2022-08-29T22:53:05.817Z,97575.72
2022-08-29T22:55:35.003Z,97579.06
2022-08-29T22:58:04.725Z,97576.78
2022-08-29T23:00:32.471Z,97579.19
2022-08-29T23:03:02.207Z,97578.47
2022-08-29T23:05:31.052Z,97581.84
2022-08-29T23:07:58.812Z,97572.88
2022-08-29T23:10:26.611Z,97573.22
2022-08-29T23:12:55.875Z,97576.84
2022-08-29T23:15:23.850Z,97578.13
2022-08-29T23:17:51.686Z,97579.44
2022-08-29T23:20:19.685Z,97577.88
2022-08-29T23:22:47.441Z,97569.56
2022-08-29T23:25:16.533Z,97567.66
2022-08-29T23:27:44.439Z,97562.59
2022-08-29T23:30:15.274Z,97566.81
2022-08-29T23:32:43.094Z,97566.25
2022-08-29T23:35:11.404Z,97573.81
2022-08-29T23:37:39.180Z,97566.44
2022-08-29T23:40:08.138Z,97561.78
2022-08-29T23:42:37.076Z,97562.34
2022-08-29T23:45:06.656Z,97550.44
2022-08-29T23:47:36.092Z,97560.66
2022-08-29T23:50:05.054Z,97558.09
2022-08-29T23:52:32.806Z,97561.41
2022-08-29T23:55:01.773Z,97563.34
2022-08-29T23:57:29.534Z,97564.09
